Time;durP1;ratioP1;P1;durP2;ratioP2;P2;SDS_P1;SDS_P2;PMS_P1;PMS_P2;Temp;Humidity;BMP_temperature;BMP_pressure;BME280_temperature;BME280_humidity;BME280_pressure;Samples;Min_cycle;Max_cycle;Signal;HPM_P1;HPM_P2
2022/03/14 00:01:18;;;;;;;11.85;9.52;;;17.20;51.30;;;;;;4064768;29;20040;-67
2022/03/14 00:03:45;;;;;;;11.82;9.07;;;17.20;51.40;;;;;;4063184;29;20483;-68
2022/03/14 00:06:12;;;;;;;11.60;9.80;;;17.10;51.60;;;;;;4048687;29;20060;-67
2022/03/14 00:08:41;;;;;;;11.25;9.20;;;17.20;51.80;;;;;;4049195;29;20058;-67
2022/03/14 00:11:03;;;;;;;12.60;9.68;;;17.20;52.10;;;;;;4049030;29;20470;-67
2022/03/14 00:13:26;;;;;;;12.00;9.93;;;17.10;52.30;;;;;;4049207;29;20056;-67
2022/03/14 00:15:48;;;;;;;12.40;9.90;;;17.10;52.00;;;;;;4048812;29;20065;-67
2022/03/14 00:18:12;;;;;;;11.38;9.15;;;17.20;52.20;;;;;;4048896;29;20132;-67
2022/03/14 00:20:34;;;;;;;14.13;10.38;;;17.20;52.40;;;;;;4048780;29;20049;-67
2022/03/14 00:22:58;;;;;;;11.35;9.85;;;17.20;52.50;;;;;;4060259;29;20105;-67
2022/03/14 00:25:22;;;;;;;13.85;9.95;;;17.10;52.60;;;;;;4048734;29;20063;-68
2022/03/14 00:27:44;;;;;;;11.02;9.35;;;17.10;52.80;;;;;;4048095;29;20452;-68
2022/03/14 00:30:08;;;;;;;17.55;10.45;;;17.10;52.90;;;;;;4048703;29;20177;-68
2022/03/14 00:32:32;;;;;;;11.30;10.10;;;17.10;52.80;;;;;;4047750;29;20053;-67
2022/03/14 00:34:54;;;;;;;11.95;9.70;;;17.10;52.70;;;;;;4052679;29;20147;-68
2022/03/14 00:37:16;;;;;;;11.20;9.73;;;17.10;53.40;;;;;;4059083;29;20387;-68
2022/03/14 00:39:38;;;;;;;15.45;10.77;;;17.10;52.80;;;;;;4054366;29;20081;-68
2022/03/14 00:42:02;;;;;;;12.80;10.25;;;17.10;52.70;;;;;;4048469;29;20060;-67
2022/03/14 00:44:24;;;;;;;14.60;10.38;;;17.10;52.80;;;;;;4048464;29;20594;-67
2022/03/14 00:46:47;;;;;;;15.02;10.38;;;17.10;52.90;;;;;;4048783;29;20138;-66
2022/03/14 00:49:09;;;;;;;13.02;10.30;;;17.10;52.90;;;;;;4033785;29;20144;-67
2022/03/14 00:51:32;;;;;;;16.63;11.38;;;17.10;53.00;;;;;;4048488;29;20143;-67
2022/03/14 00:53:55;;;;;;;12.45;10.60;;;17.10;53.20;;;;;;4048740;29;20049;-67
2022/03/14 00:56:20;;;;;;;13.30;11.38;;;17.10;53.20;;;;;;4047309;29;20092;-67
2022/03/14 00:58:44;;;;;;;13.70;9.80;;;17.00;53.20;;;;;;4047794;29;20141;-67
2022/03/14 01:01:06;;;;;;;13.75;11.20;;;17.10;53.20;;;;;;4048532;29;20143;-67
2022/03/14 01:03:29;;;;;;;16.55;11.68;;;17.10;53.20;;;;;;4048292;29;20044;-67
2022/03/14 01:05:52;;;;;;;14.32;12.02;;;17.10;53.20;;;;;;4047331;29;20125;-67
2022/03/14 01:08:14;;;;;;;15.02;10.23;;;17.00;53.20;;;;;;4060589;29;20138;-67
2022/03/14 01:10:36;;;;;;;14.20;10.80;;;17.10;53.30;;;;;;4048037;29;20412;-67
2022/03/14 01:13:01;;;;;;;16.73;10.98;;;17.00;53.50;;;;;;4033733;29;20113;-67
2022/03/14 01:15:25;;;;;;;13.48;9.73;;;17.00;53.50;;;;;;4048232;29;20140;-66
2022/03/14 01:17:47;;;;;;;13.32;11.38;;;17.00;53.50;;;;;;4033642;29;20081;-66
2022/03/14 01:20:11;;;;;;;16.23;11.18;;;17.00;53.60;;;;;;4047630;29;20053;-66
2022/03/14 01:22:34;;;;;;;14.50;11.07;;;17.00;53.70;;;;;;4049024;29;20491;-66
2022/03/14 01:24:56;;;;;;;11.75;10.00;;;17.00;53.70;;;;;;4033847;29;20089;-65
2022/03/14 01:27:18;;;;;;;12.48;10.45;;;17.00;53.80;;;;;;4047799;29;20064;-66
2022/03/14 01:29:40;;;;;;;11.65;10.20;;;17.00;54.00;;;;;;4033512;29;20525;-66
2022/03/14 01:32:05;;;;;;;12.80;10.50;;;17.00;54.00;;;;;;4046987;29;20510;-66
2022/03/14 01:34:27;;;;;;;13.82;11.07;;;16.90;53.90;;;;;;4048057;29;20057;-66
2022/03/14 01:36:49;;;;;;;13.10;9.85;;;17.00;54.00;;;;;;4059393;29;20483;-66
2022/03/14 01:39:11;;;;;;;15.77;10.23;;;17.00;54.10;;;;;;4063233;29;20411;-66
2022/03/14 01:41:33;;;;;;;11.77;10.32;;;16.90;54.10;;;;;;4058327;29;20052;-66
2022/03/14 01:43:57;;;;;;;18.10;10.13;;;16.90;54.10;;;;;;4053292;29;20407;-66
2022/03/14 01:46:19;;;;;;;12.73;10.05;;;16.90;54.20;;;;;;4063339;29;20130;-66
2022/03/14 01:48:43;;;;;;;12.73;9.68;;;17.00;54.30;;;;;;4063496;29;20552;-66
2022/03/14 01:51:06;;;;;;;12.98;10.23;;;16.90;54.30;;;;;;4047349;29;20074;-66
2022/03/14 01:53:31;;;;;;;10.68;9.23;;;16.90;54.30;;;;;;4063415;29;20047;-66
2022/03/14 01:55:53;;;;;;;13.00;10.63;;;16.90;54.40;;;;;;4057158;29;20491;-66
2022/03/14 01:58:16;;;;;;;12.40;9.60;;;16.90;54.50;;;;;;4048419;29;20080;-66
2022/03/14 02:00:39;;;;;;;12.07;9.52;;;16.90;54.60;;;;;;4047556;29;20456;-67
2022/03/14 02:03:01;;;;;;;12.25;8.98;;;16.90;54.60;;;;;;4033418;29;20053;-67
2022/03/14 02:05:25;;;;;;;13.63;10.35;;;16.90;54.60;;;;;;4048869;29;20040;-66
2022/03/14 02:07:47;;;;;;;13.15;9.93;;;16.90;54.60;;;;;;4047227;29;20131;-66
2022/03/14 02:10:09;;;;;;;12.50;9.80;;;16.90;54.70;;;;;;4047280;29;20056;-66
2022/03/14 02:12:32;;;;;;;11.75;9.40;;;16.90;54.70;;;;;;4047681;29;20493;-66
2022/03/14 02:14:54;;;;;;;12.55;8.88;;;16.90;54.70;;;;;;4061966;29;20055;-66
2022/03/14 02:17:18;;;;;;;10.90;8.80;;;16.90;54.70;;;;;;4061199;29;20147;-67
2022/03/14 02:19:41;;;;;;;12.73;8.82;;;16.90;54.80;;;;;;4048259;29;20135;-67
2022/03/14 02:22:07;;;;;;;11.90;9.10;;;16.90;54.90;;;;;;4063256;29;20063;-67
2022/03/14 02:24:29;;;;;;;10.35;8.70;;;16.90;55.00;;;;;;4061435;29;20062;-67
2022/03/14 02:26:51;;;;;;;11.55;9.00;;;16.90;55.00;;;;;;4062473;29;20052;-68
2022/03/14 02:29:14;;;;;;;11.02;8.70;;;16.90;55.00;;;;;;4061076;29;20498;-67
2022/03/14 02:31:37;;;;;;;11.60;9.48;;;16.90;55.10;;;;;;4049603;29;20488;-67
2022/03/14 02:33:59;;;;;;;11.30;9.80;;;16.80;55.10;;;;;;4062391;29;20571;-68
2022/03/14 02:36:21;;;;;;;11.68;9.90;;;16.80;55.10;;;;;;4063090;29;20495;-67
2022/03/14 02:38:44;;;;;;;10.45;9.00;;;16.80;55.10;;;;;;4061298;29;20406;-67
2022/03/14 02:41:06;;;;;;;12.77;9.98;;;16.90;55.20;;;;;;4048115;29;20060;-67
2022/03/14 02:43:28;;;;;;;10.48;9.40;;;16.90;55.20;;;;;;4061282;29;20052;-67
2022/03/14 02:45:51;;;;;;;12.13;9.68;;;16.80;55.20;;;;;;4048207;29;20056;-67
2022/03/14 02:48:16;;;;;;;10.50;9.45;;;16.80;55.30;;;;;;4046935;29;20044;-67
2022/03/14 02:50:43;;;;;;;12.73;9.63;;;16.80;55.40;;;;;;4040785;29;21100;-66
2022/03/14 02:53:05;;;;;;;13.75;10.18;;;16.80;55.50;;;;;;4061433;29;20551;-67
2022/03/14 02:55:29;;;;;;;11.93;9.32;;;16.80;55.50;;;;;;4062711;29;20111;-67
2022/03/14 02:57:51;;;;;;;14.07;9.70;;;16.80;55.50;;;;;;4051123;29;20395;-67
2022/03/14 03:00:14;;;;;;;11.48;10.15;;;16.80;56.30;;;;;;4046841;29;20044;-67
2022/03/14 03:02:37;;;;;;;11.98;9.43;;;16.80;56.40;;;;;;4036987;29;20178;-67
2022/03/14 03:05:01;;;;;;;11.63;9.13;;;16.80;55.70;;;;;;4059601;29;20060;-66
2022/03/14 03:07:23;;;;;;;11.60;8.65;;;16.80;55.70;;;;;;4046678;29;20072;-66
2022/03/14 03:09:46;;;;;;;9.25;8.23;;;16.80;55.80;;;;;;4061654;29;20407;-67
2022/03/14 03:12:12;;;;;;;10.23;8.80;;;16.80;55.90;;;;;;4054997;29;20071;-67
2022/03/14 03:14:34;;;;;;;9.57;8.57;;;16.80;55.90;;;;;;4047674;29;20041;-67
2022/03/14 03:16:56;;;;;;;10.93;7.65;;;16.80;55.90;;;;;;4046672;29;20396;-67
2022/03/14 03:19:18;;;;;;;10.27;7.80;;;16.70;56.00;;;;;;4047711;29;20149;-67
2022/03/14 03:21:40;;;;;;;8.45;7.55;;;16.70;56.00;;;;;;4049456;29;20455;-67
2022/03/14 03:24:03;;;;;;;8.45;7.60;;;16.70;56.00;;;;;;4062584;29;20063;-67
2022/03/14 03:26:25;;;;;;;9.15;7.07;;;16.80;56.00;;;;;;4062113;29;20082;-67
2022/03/14 03:28:49;;;;;;;9.57;7.43;;;16.70;56.10;;;;;;4062615;29;20059;-67
2022/03/14 03:31:13;;;;;;;8.38;6.93;;;16.70;56.10;;;;;;4049354;29;20065;-67
2022/03/14 03:33:36;;;;;;;7.18;6.47;;;16.70;56.20;;;;;;4049752;29;20059;-67
2022/03/14 03:35:58;;;;;;;8.65;7.22;;;16.70;56.20;;;;;;4036695;29;20089;-68
2022/03/14 03:38:20;;;;;;;7.88;7.07;;;16.70;56.30;;;;;;4035498;29;20480;-69
2022/03/14 03:40:42;;;;;;;7.85;6.78;;;16.70;56.40;;;;;;4049490;29;20211;-67
2022/03/14 03:43:05;;;;;;;7.75;6.95;;;16.70;56.40;;;;;;4055902;29;20056;-67
2022/03/14 03:45:29;;;;;;;8.38;7.07;;;16.70;56.40;;;;;;4049592;29;20075;-68
2022/03/14 03:47:51;;;;;;;7.03;6.28;;;16.70;56.40;;;;;;4049144;29;20043;-67
2022/03/14 03:50:13;;;;;;;7.93;7.15;;;16.70;56.50;;;;;;4048760;29;20456;-67
2022/03/14 03:52:35;;;;;;;8.40;7.00;;;16.70;56.50;;;;;;4063470;29;20178;-67
2022/03/14 03:54:57;;;;;;;7.22;6.53;;;16.70;56.50;;;;;;4064778;29;20142;-68
2022/03/14 03:57:19;;;;;;;7.05;6.35;;;16.70;56.60;;;;;;4064312;29;20103;-68
2022/03/14 03:59:41;;;;;;;7.57;6.78;;;16.70;56.50;;;;;;4050169;29;20057;-68
2022/03/14 04:02:05;;;;;;;9.98;6.25;;;16.70;56.50;;;;;;4064726;29;20103;-68
2022/03/14 04:04:28;;;;;;;9.60;6.53;;;16.70;56.60;;;;;;4053042;29;20100;-68
2022/03/14 04:06:51;;;;;;;7.20;6.35;;;16.60;56.60;;;;;;4063388;29;20044;-67
2022/03/14 04:09:14;;;;;;;7.80;5.88;;;16.70;56.80;;;;;;4049196;29;20052;-67
2022/03/14 04:11:36;;;;;;;6.43;5.78;;;16.60;56.70;;;;;;4049174;29;20076;-67
2022/03/14 04:13:59;;;;;;;8.95;5.97;;;16.60;57.50;;;;;;4049157;29;20156;-67
2022/03/14 04:16:22;;;;;;;6.38;5.82;;;16.60;56.80;;;;;;4034846;29;20464;-64
2022/03/14 04:18:49;;;;;;;7.80;6.05;;;16.60;56.90;;;;;;4048803;29;20495;-65
2022/03/14 04:21:13;;;;;;;6.60;5.80;;;16.60;57.00;;;;;;4048328;29;20060;-65
2022/03/14 04:23:34;;;;;;;6.50;5.47;;;16.60;57.00;;;;;;4053794;29;20139;-66
2022/03/14 04:25:57;;;;;;;6.28;5.68;;;16.60;57.10;;;;;;4057531;29;20056;-66
2022/03/14 04:28:18;;;;;;;5.03;4.57;;;16.60;57.20;;;;;;4048119;29;20056;-65
2022/03/14 04:30:41;;;;;;;5.72;5.20;;;16.60;57.20;;;;;;4048038;29;20060;-67
2022/03/14 04:33:03;;;;;;;5.70;5.20;;;16.60;57.30;;;;;;4048109;29;20549;-67
2022/03/14 04:35:27;;;;;;;5.35;4.85;;;16.60;57.20;;;;;;4048266;29;20078;-67
2022/03/14 04:37:49;;;;;;;5.68;5.07;;;16.60;57.30;;;;;;4048163;29;20147;-67
2022/03/14 04:40:13;;;;;;;5.28;4.60;;;16.60;57.30;;;;;;4048093;29;20137;-67
2022/03/14 04:42:37;;;;;;;5.50;4.88;;;16.60;57.30;;;;;;4048394;29;20060;-67
2022/03/14 04:44:59;;;;;;;5.35;4.82;;;16.60;57.30;;;;;;4048528;29;20059;-67
2022/03/14 04:47:21;;;;;;;5.57;5.07;;;16.60;57.30;;;;;;4033528;29;20057;-67
2022/03/14 04:49:44;;;;;;;5.50;4.47;;;16.60;57.30;;;;;;4048270;29;20053;-67
2022/03/14 04:52:08;;;;;;;6.82;4.97;;;16.60;57.40;;;;;;4053516;29;20058;-66
2022/03/14 04:54:30;;;;;;;5.22;4.75;;;16.60;57.30;;;;;;4063699;29;20058;-66
2022/03/14 04:56:54;;;;;;;6.05;4.90;;;16.60;57.40;;;;;;4049863;29;20067;-66
2022/03/14 04:59:17;;;;;;;6.10;5.25;;;16.60;57.30;;;;;;4033992;29;20791;-67
2022/03/14 05:01:39;;;;;;;5.50;4.72;;;16.60;57.40;;;;;;4048115;29;20052;-67
2022/03/14 05:04:02;;;;;;;5.55;4.93;;;16.60;57.40;;;;;;4047692;29;20060;-68
2022/03/14 05:06:25;;;;;;;5.47;4.95;;;16.60;57.40;;;;;;4049990;29;20143;-67
2022/03/14 05:08:49;;;;;;;5.15;4.65;;;16.60;57.40;;;;;;4047740;29;20052;-66
2022/03/14 05:11:14;;;;;;;4.93;4.53;;;16.60;57.50;;;;;;4048689;29;20926;-67
2022/03/14 05:13:36;;;;;;;5.43;4.95;;;16.60;57.50;;;;;;4033941;29;20101;-66
2022/03/14 05:15:58;;;;;;;5.25;4.75;;;16.60;57.50;;;;;;4033410;29;20416;-67
2022/03/14 05:18:20;;;;;;;5.10;4.63;;;16.60;57.60;;;;;;4048059;29;20080;-67
2022/03/14 05:20:42;;;;;;;4.10;3.80;;;16.50;57.50;;;;;;4059584;29;20079;-67
2022/03/14 05:23:04;;;;;;;4.97;4.40;;;16.50;57.60;;;;;;4061480;29;20059;-67
2022/03/14 05:25:30;;;;;;;4.65;3.78;;;16.60;57.70;;;;;;4063879;29;20064;-67
2022/03/14 05:27:53;;;;;;;3.38;3.10;;;16.60;57.80;;;;;;4048411;29;20053;-67
2022/03/14 05:30:16;;;;;;;4.00;3.50;;;16.50;57.80;;;;;;4048059;29;20107;-67
2022/03/14 05:32:40;;;;;;;4.00;3.42;;;16.50;57.80;;;;;;4047464;29;20052;-66
2022/03/14 05:35:02;;;;;;;5.88;3.22;;;16.50;57.90;;;;;;4047660;29;20055;-67
2022/03/14 05:37:25;;;;;;;3.78;3.50;;;16.50;57.90;;;;;;4037273;29;20065;-67
2022/03/14 05:39:47;;;;;;;3.10;2.88;;;16.50;58.00;;;;;;4033723;29;20049;-67
2022/03/14 05:42:11;;;;;;;3.30;3.00;;;16.50;58.00;;;;;;4047778;29;20088;-67
2022/03/14 05:44:35;;;;;;;3.05;2.85;;;16.50;58.10;;;;;;4048598;29;20136;-66
2022/03/14 05:46:57;;;;;;;5.57;3.28;;;16.50;58.10;;;;;;4047629;29;20048;-68
2022/03/14 05:49:19;;;;;;;3.58;3.25;;;16.50;58.20;;;;;;4047611;29;20063;-66
2022/03/14 05:51:41;;;;;;;5.82;3.38;;;16.50;58.40;;;;;;4050951;29;20063;-66
2022/03/14 05:54:04;;;;;;;4.50;3.75;;;16.50;59.20;;;;;;4063246;29;20436;-66
2022/03/14 05:56:26;;;;;;;3.47;3.20;;;16.50;59.40;;;;;;4062680;29;20491;-66
2022/03/14 05:58:51;;;;;;;3.80;3.08;;;16.60;59.30;;;;;;4063121;29;20063;-65
2022/03/14 06:01:13;;;;;;;3.60;3.30;;;16.60;59.10;;;;;;4054437;29;20144;-64
2022/03/14 06:03:35;;;;;;;4.35;3.28;;;16.60;59.00;;;;;;4046746;29;20049;-64
2022/03/14 06:05:57;;;;;;;3.45;3.15;;;16.60;59.00;;;;;;4049955;29;20618;-64
2022/03/14 06:08:19;;;;;;;3.55;3.20;;;16.60;59.00;;;;;;4043433;29;20185;-64
2022/03/14 06:10:45;;;;;;;4.45;3.15;;;16.60;59.00;;;;;;4047245;29;20052;-64
2022/03/14 06:13:07;;;;;;;3.47;3.28;;;16.60;59.00;;;;;;4047306;29;20060;-64
2022/03/14 06:15:31;;;;;;;3.55;3.25;;;16.50;58.90;;;;;;4050918;29;20427;-63
2022/03/14 06:17:53;;;;;;;3.45;3.25;;;16.50;58.90;;;;;;4061668;29;20097;-64
2022/03/14 06:20:16;;;;;;;3.72;3.42;;;16.50;58.90;;;;;;4056758;29;20052;-62
2022/03/14 06:22:42;;;;;;;3.20;3.00;;;16.50;58.90;;;;;;4048543;29;20100;-64
2022/03/14 06:25:06;;;;;;;3.97;3.58;;;16.50;59.00;;;;;;4062411;29;20161;-64
2022/03/14 06:27:28;;;;;;;3.65;3.35;;;16.50;59.10;;;;;;4048696;29;20051;-64
2022/03/14 06:29:51;;;;;;;3.25;3.03;;;16.50;59.20;;;;;;4061576;29;20051;-63
2022/03/14 06:32:15;;;;;;;3.55;3.35;;;16.50;59.30;;;;;;4062798;29;20048;-63
2022/03/14 06:34:37;;;;;;;3.75;3.45;;;16.50;59.30;;;;;;4073552;29;20063;-64
2022/03/14 06:36:59;;;;;;;2.97;2.50;;;16.50;59.40;;;;;;4055033;29;20045;-64
2022/03/14 06:39:21;;;;;;;4.40;3.40;;;16.50;59.50;;;;;;4063422;29;20062;-64
2022/03/14 06:41:44;;;;;;;3.60;3.30;;;16.50;59.50;;;;;;4062636;29;20075;-64
2022/03/14 06:44:07;;;;;;;4.32;3.05;;;16.50;59.50;;;;;;4060718;29;20498;-64
2022/03/14 06:46:29;;;;;;;3.05;2.85;;;16.50;59.60;;;;;;4057886;29;20052;-64
2022/03/14 06:48:52;;;;;;;3.22;3.03;;;16.50;59.60;;;;;;4047899;29;20139;-64
2022/03/14 06:51:15;;;;;;;3.10;2.90;;;16.50;59.70;;;;;;4062479;29;20476;-64
2022/03/14 06:53:37;;;;;;;2.88;2.67;;;16.50;59.60;;;;;;4061578;29;20072;-64
2022/03/14 06:56:00;;;;;;;3.53;3.28;;;16.50;59.60;;;;;;4062499;29;20567;-64
2022/03/14 06:58:22;;;;;;;3.63;3.42;;;16.50;59.70;;;;;;4062672;29;20056;-64
2022/03/14 07:00:45;;;;;;;4.28;3.38;;;16.50;59.70;;;;;;4062664;29;20058;-64
2022/03/14 07:03:07;;;;;;;3.35;3.15;;;16.40;59.60;;;;;;4063008;29;20502;-64
2022/03/14 07:05:31;;;;;;;3.83;3.47;;;16.40;59.70;;;;;;4065734;29;20060;-64
2022/03/14 07:07:54;;;;;;;3.60;3.30;;;16.40;59.70;;;;;;4063643;29;20882;-64
2022/03/14 07:10:17;;;;;;;4.00;3.65;;;16.40;59.70;;;;;;4065437;29;20063;-64
2022/03/14 07:12:44;;;;;;;3.20;3.00;;;16.40;59.70;;;;;;4051811;29;20546;-63
2022/03/14 07:15:07;;;;;;;3.22;3.00;;;16.40;59.80;;;;;;4050677;29;20074;-64
2022/03/14 07:17:29;;;;;;;3.35;3.15;;;16.40;59.80;;;;;;4050976;29;20156;-64
2022/03/14 07:19:52;;;;;;;5.00;3.40;;;16.40;59.80;;;;;;4065263;29;20499;-64
2022/03/14 07:22:19;;;;;;;3.45;3.15;;;16.40;59.80;;;;;;4065358;29;20056;-64
2022/03/14 07:24:45;;;;;;;3.85;3.20;;;16.40;59.80;;;;;;4054145;29;20108;-64
2022/03/14 07:27:08;;;;;;;3.88;3.25;;;16.40;59.90;;;;;;4049599;29;20471;-63
2022/03/14 07:29:30;;;;;;;4.50;3.38;;;16.40;59.90;;;;;;4049023;29;20056;-64
2022/03/14 07:31:52;;;;;;;3.75;3.47;;;16.40;60.00;;;;;;4049453;29;20056;-63
2022/03/14 07:34:15;;;;;;;3.70;3.40;;;16.30;59.90;;;;;;4049461;29;20134;-63
2022/03/14 07:36:37;;;;;;;4.32;3.13;;;16.40;60.00;;;;;;4059665;29;20048;-63
2022/03/14 07:39:01;;;;;;;3.92;3.53;;;16.40;60.10;;;;;;4049213;29;20423;-63
2022/03/14 07:41:23;;;;;;;4.20;3.60;;;16.30;60.10;;;;;;4057329;29;20056;-63
2022/03/14 07:43:45;;;;;;;4.45;3.50;;;16.40;60.30;;;;;;4064685;29;20111;-63
2022/03/14 07:46:08;;;;;;;4.13;3.22;;;16.40;60.30;;;;;;4063705;29;20143;-63
2022/03/14 07:48:31;;;;;;;3.50;3.20;;;16.30;60.30;;;;;;4064341;29;20459;-63
2022/03/14 07:50:53;;;;;;;3.55;3.35;;;16.30;60.50;;;;;;4064400;29;20467;-64
2022/03/14 07:53:15;;;;;;;4.05;3.65;;;16.30;60.50;;;;;;4064677;29;20059;-64
2022/03/14 07:55:38;;;;;;;3.33;3.05;;;16.30;60.50;;;;;;4064801;29;20062;-66
2022/03/14 07:58:00;;;;;;;3.55;3.15;;;16.30;60.80;;;;;;4049833;29;20112;-65
2022/03/14 08:00:23;;;;;;;4.75;3.97;;;16.30;60.70;;;;;;4043120;29;20160;-66
2022/03/14 08:02:47;;;;;;;3.15;2.95;;;16.30;60.80;;;;;;4069854;29;20047;-63
2022/03/14 08:05:10;;;;;;;3.35;3.05;;;16.30;60.90;;;;;;4048768;29;20143;-65
2022/03/14 08:07:34;;;;;;;3.53;3.13;;;16.30;60.90;;;;;;4047337;29;20093;-65
2022/03/14 08:09:56;;;;;;;3.35;3.15;;;16.30;61.10;;;;;;4058371;29;20048;-63
2022/03/14 08:12:21;;;;;;;3.47;3.22;;;16.30;61.20;;;;;;4064357;29;20048;-63
2022/03/14 08:14:46;;;;;;;3.60;3.40;;;16.30;61.30;;;;;;4061407;29;20063;-63
2022/03/14 08:17:09;;;;;;;3.40;3.10;;;16.30;61.20;;;;;;4063291;29;20060;-65
2022/03/14 08:19:31;;;;;;;3.45;3.22;;;16.30;61.20;;;;;;4064326;29;20550;-66
2022/03/14 08:21:55;;;;;;;3.65;3.35;;;16.30;61.30;;;;;;4062677;29;20051;-65
2022/03/14 08:24:17;;;;;;;3.70;3.40;;;16.30;61.40;;;;;;4056962;29;20076;-65
2022/03/14 08:26:39;;;;;;;3.65;3.15;;;16.30;61.70;;;;;;4048409;29;20075;-66
2022/03/14 08:29:06;;;;;;;4.03;3.70;;;16.30;61.80;;;;;;4034174;29;20068;-66
2022/03/14 08:31:30;;;;;;;4.05;3.40;;;16.30;61.90;;;;;;4059845;29;20501;-65
2022/03/14 08:33:53;;;;;;;5.03;3.50;;;16.30;61.90;;;;;;4035624;29;20063;-66
2022/03/14 08:36:20;;;;;;;3.75;3.40;;;16.30;62.00;;;;;;4049205;29;20139;-65
2022/03/14 08:38:42;;;;;;;3.67;3.20;;;16.20;62.00;;;;;;4064000;29;22103;-65
2022/03/14 08:41:04;;;;;;;4.00;3.75;;;16.20;62.00;;;;;;4061435;29;20107;-65
2022/03/14 08:43:26;;;;;;;3.95;3.65;;;16.30;62.10;;;;;;4033931;29;20075;-65
2022/03/14 08:45:50;;;;;;;5.55;3.50;;;16.30;62.20;;;;;;4048146;29;20128;-65
2022/03/14 08:48:16;;;;;;;3.78;3.47;;;16.30;62.10;;;;;;4047891;29;20044;-66
2022/03/14 08:50:40;;;;;;;3.90;3.60;;;16.30;62.20;;;;;;4048237;29;20134;-66
2022/03/14 08:53:02;;;;;;;4.40;4.10;;;16.30;62.20;;;;;;4047937;29;20064;-65
2022/03/14 08:55:25;;;;;;;4.30;4.00;;;16.20;62.10;;;;;;4052771;29;20498;-65
2022/03/14 08:57:47;;;;;;;4.03;3.67;;;16.30;62.30;;;;;;4063926;29;20060;-65
2022/03/14 09:00:12;;;;;;;3.90;3.60;;;16.30;62.30;;;;;;4063563;29;20558;-65
2022/03/14 09:02:38;;;;;;;4.18;3.83;;;16.30;62.30;;;;;;4063736;29;21751;-66
2022/03/14 09:05:00;;;;;;;4.03;3.63;;;16.30;62.40;;;;;;4063100;29;20414;-65
2022/03/14 09:07:26;;;;;;;3.75;3.45;;;16.30;62.50;;;;;;4063311;29;20048;-65
2022/03/14 09:09:48;;;;;;;4.25;3.88;;;16.20;62.40;;;;;;4050751;29;20052;-65
2022/03/14 09:12:13;;;;;;;4.22;3.92;;;16.20;62.40;;;;;;4048441;29;20419;-66
2022/03/14 09:14:36;;;;;;;4.90;4.10;;;16.20;62.40;;;;;;4048389;29;20580;-65
2022/03/14 09:16:59;;;;;;;4.28;3.97;;;16.30;62.60;;;;;;4047950;29;20088;-65
2022/03/14 09:19:27;;;;;;;4.85;4.03;;;16.20;62.50;;;;;;4059754;29;20483;-66
2022/03/14 09:21:57;;;;;;;4.57;4.18;;;16.30;62.60;;;;;;4063294;29;20127;-66
2022/03/14 09:24:19;;;;;;;4.25;3.95;;;16.20;62.60;;;;;;4048074;29;20052;-66
2022/03/14 09:26:41;;;;;;;4.88;4.18;;;16.20;62.60;;;;;;4047487;29;20056;-66
2022/03/14 09:29:06;;;;;;;4.57;4.18;;;16.20;62.60;;;;;;4033353;29;20073;-66
2022/03/14 09:31:29;;;;;;;6.55;4.72;;;16.30;62.70;;;;;;4061688;29;20673;-65
2022/03/14 09:33:54;;;;;;;7.57;4.88;;;16.20;62.60;;;;;;4048479;29;20488;-65
2022/03/14 09:36:19;;;;;;;4.85;4.45;;;16.20;62.70;;;;;;4058550;29;20197;-66
2022/03/14 09:38:41;;;;;;;4.75;3.90;;;16.20;62.70;;;;;;4056409;29;20143;-66
2022/03/14 09:41:05;;;;;;;5.35;4.30;;;16.20;62.80;;;;;;4062986;29;20055;-66
2022/03/14 09:43:30;;;;;;;4.93;4.55;;;16.20;62.70;;;;;;4063263;29;20123;-67
2022/03/14 09:45:53;;;;;;;5.35;4.85;;;16.20;63.70;;;;;;4062901;29;20056;-66
2022/03/14 09:48:16;;;;;;;5.80;5.28;;;16.20;62.80;;;;;;4062781;29;20052;-66
2022/03/14 09:50:44;;;;;;;4.60;4.20;;;16.20;62.90;;;;;;4054907;29;20063;-66
2022/03/14 09:53:09;;;;;;;5.57;4.55;;;16.20;62.80;;;;;;4060251;29;20434;-66
2022/03/14 09:55:38;;;;;;;5.32;4.72;;;16.20;62.90;;;;;;4047893;29;20048;-66
2022/03/14 09:58:01;;;;;;;6.07;5.00;;;16.30;62.90;;;;;;4060576;29;20079;-66
2022/03/14 10:00:23;;;;;;;5.60;5.10;;;16.20;62.90;;;;;;4045145;29;20056;-65
2022/03/14 10:02:46;;;;;;;5.78;5.28;;;16.20;62.90;;;;;;4059822;29;20052;-66
2022/03/14 10:05:10;;;;;;;5.53;5.13;;;16.30;63.10;;;;;;4060009;29;20052;-66
2022/03/14 10:07:34;;;;;;;6.95;6.13;;;16.20;63.10;;;;;;4059941;29;20116;-65
2022/03/14 10:09:59;;;;;;;5.78;5.20;;;16.20;63.10;;;;;;4059346;29;20056;-65
2022/03/14 10:12:22;;;;;;;6.28;5.68;;;16.30;63.20;;;;;;4059971;29;20137;-67
2022/03/14 10:14:45;;;;;;;6.03;4.45;;;16.20;63.20;;;;;;4059908;29;20054;-67
2022/03/14 10:17:08;;;;;;;6.25;5.75;;;16.20;63.20;;;;;;4059837;29;20499;-67
2022/03/14 10:19:31;;;;;;;6.28;5.68;;;16.20;63.40;;;;;;4059242;29;20052;-64
2022/03/14 10:21:53;;;;;;;7.05;5.65;;;16.20;63.30;;;;;;4059685;29;20131;-65
2022/03/14 10:24:15;;;;;;;6.72;6.03;;;16.20;63.30;;;;;;4044906;29;20620;-65
2022/03/14 10:26:42;;;;;;;7.20;6.50;;;16.20;63.40;;;;;;4059785;29;20080;-65
2022/03/14 10:29:12;;;;;;;7.93;7.13;;;16.20;63.50;;;;;;4059994;29;20048;-65
2022/03/14 10:31:36;;;;;;;7.18;6.47;;;16.30;63.50;;;;;;4059108;29;20048;-65
2022/03/14 10:34:04;;;;;;;8.45;6.97;;;16.20;63.60;;;;;;4059873;29;20059;-65
2022/03/14 10:36:42;;;;;;;8.68;7.28;;;16.20;63.70;;;;;;4059839;29;20106;-65
2022/03/14 10:39:13;;;;;;;7.80;6.40;;;16.20;63.80;;;;;;4061724;29;20597;-65
2022/03/14 10:41:35;;;;;;;10.07;7.63;;;16.20;63.80;;;;;;4063130;29;20579;-65
2022/03/14 10:44:10;;;;;;;8.88;7.97;;;16.20;63.80;;;;;;4062738;29;20498;-65
2022/03/14 10:46:32;;;;;;;7.38;6.68;;;16.20;64.00;;;;;;4062725;29;20048;-65
2022/03/14 10:48:54;;;;;;;8.05;7.22;;;16.20;64.10;;;;;;4063203;29;20059;-65
2022/03/14 10:51:18;;;;;;;11.07;6.82;;;16.20;64.00;;;;;;4063081;29;20056;-65
2022/03/14 10:53:42;;;;;;;7.28;6.57;;;16.20;64.00;;;;;;4062974;29;20052;-66
2022/03/14 10:56:04;;;;;;;10.20;6.90;;;16.20;64.40;;;;;;4063092;29;20139;-65
2022/03/14 10:58:30;;;;;;;8.45;7.25;;;16.20;65.50;;;;;;4062531;29;20557;-65
2022/03/14 11:00:56;;;;;;;9.60;7.63;;;16.20;65.90;;;;;;4062894;29;20048;-65
2022/03/14 11:03:27;;;;;;;11.48;8.65;;;16.20;66.00;;;;;;4062738;29;20558;-65
2022/03/14 11:05:50;;;;;;;;;;;16.30;65.80;;;;;;4063106;29;20063;-65
2022/03/14 11:08:33;;;;;;;11.52;9.23;;;16.20;65.50;;;;;;4062554;29;20462;-65
2022/03/14 11:10:56;;;;;;;9.98;8.45;;;16.20;65.70;;;;;;4062090;29;20107;-65
2022/03/14 11:13:19;;;;;;;11.60;9.35;;;16.20;65.80;;;;;;4062540;29;20103;-65
2022/03/14 11:15:41;;;;;;;12.63;8.75;;;16.20;65.90;;;;;;4062357;29;20546;-65
2022/03/14 11:18:05;;;;;;;13.68;9.95;;;16.20;66.10;;;;;;4062418;29;20055;-65
2022/03/14 11:20:28;;;;;;;13.45;9.73;;;16.20;66.40;;;;;;4062437;29;20134;-65
2022/03/14 11:22:52;;;;;;;10.85;8.88;;;16.20;66.50;;;;;;4062286;29;20044;-65
2022/03/14 11:25:16;;;;;;;13.95;10.02;;;16.20;66.70;;;;;;4062152;29;20044;-65
2022/03/14 11:27:42;;;;;;;11.48;9.45;;;16.20;66.80;;;;;;4062663;29;20052;-64
2022/03/14 11:30:07;;;;;;;13.32;9.23;;;16.20;66.90;;;;;;4062324;29;20066;-64
2022/03/14 11:32:29;;;;;;;13.77;9.70;;;16.20;67.10;;;;;;4062365;29;20059;-65
2022/03/14 11:34:58;;;;;;;11.68;9.15;;;16.20;67.50;;;;;;4047531;29;20048;-64
2022/03/14 11:37:20;;;;;;;14.15;9.43;;;16.20;67.50;;;;;;4061956;29;20485;-64
2022/03/14 11:39:43;;;;;;;15.18;8.70;;;16.20;67.40;;;;;;4062621;29;20494;-64
2022/03/14 11:42:06;;;;;;;12.80;8.57;;;16.20;67.30;;;;;;4062556;29;20069;-64
2022/03/14 11:44:29;;;;;;;15.02;8.93;;;16.20;67.40;;;;;;4062157;29;20197;-64
2022/03/14 11:46:53;;;;;;;14.68;7.82;;;16.20;67.50;;;;;;4061488;29;21224;-63
2022/03/14 11:49:17;;;;;;;11.90;7.57;;;16.20;67.50;;;;;;4061586;29;20048;-63
2022/03/14 11:51:41;;;;;;;12.20;7.50;;;16.20;67.50;;;;;;4061743;29;20997;-64
2022/03/14 11:54:10;;;;;;;13.48;7.53;;;16.20;67.50;;;;;;4047420;29;20067;-63
2022/03/14 11:56:38;;;;;;;13.93;7.70;;;16.10;67.50;;;;;;4061571;29;20135;-63
2022/03/14 11:59:01;;;;;;;12.63;8.23;;;16.10;67.50;;;;;;4062211;29;20104;-63
2022/03/14 12:01:24;;;;;;;12.38;7.93;;;16.10;67.60;;;;;;4061797;29;20459;-64
2022/03/14 12:03:49;;;;;;;12.27;6.90;;;16.10;67.70;;;;;;4057004;29;20137;-64
2022/03/14 12:06:13;;;;;;;15.93;8.40;;;16.10;67.70;;;;;;4061501;29;20052;-64
2022/03/14 12:09:01;;;;;;;12.32;7.43;;;16.10;67.80;;;;;;4062361;29;20103;-64
2022/03/14 12:11:43;;;;;;;13.25;7.30;;;16.10;67.90;;;;;;4047299;29;20147;-63
2022/03/14 12:14:09;;;;;;;17.58;8.73;;;16.10;67.90;;;;;;4061250;29;20108;-64
2022/03/14 12:16:40;;;;;;;13.80;7.40;;;16.10;67.90;;;;;;4061504;29;20060;-63
2022/03/14 12:19:29;;;;;;;12.27;7.00;;;16.10;68.10;;;;;;4061121;29;20189;-63
2022/03/14 12:21:52;;;;;;;10.52;6.65;;;16.10;68.20;;;;;;4061723;29;20062;-63
2022/03/14 12:24:20;;;;;;;11.63;6.82;;;16.10;68.40;;;;;;4060928;29;20047;-64